Skip Navigation LinksHome page > Weather > Current weather Skip Navigation Links

Current Weather

Denver Intl, Denver

For information only: do not use for flight planning or navigation.
Latest weather
Observation time Saturday, December 5, 2020 1:53 AM MST
Local time Saturday, December 5, 2020 2:06 AM MST
Flight conditions Visual Meteorological Conditions
Winds
Wind direction Southwest (230°)
Wind speed 10 mph
Visibility 10 mi.
Sky condition
Ceiling unlimited
Sky clear
Temperature 31°F
Dewpoint 16°F
Altimeter 30.42 in.Hg
Pressure change last 3 hours-0.02 in.Hg
Pressure rising more quickly
Derived measurements
Relative humidity 53%
Wind chill 22°F
Density altitude 3001 ft.
Sea-level pressure 30.37 in.Hg
Remarks
Automated weather observing station with precipitation discriminator.
METAR KDEN 050853Z 23009KT 10SM CLR M01/M09 A3042 RMK AO2 SLP286 T10061089 53008

Settings

Location code

InnerDrive.Weather 4.0.6770.0 Release CLR 4.0.30319.42000
Copyright ©2018 Inner Drive Technology. All rights reserved. Portions Copyright ©1986-2018 David Braverman.

Find weather

Site navigation


Skip Navigation Links

Place info

Page info

PayPal - The safer, easier way to pay online!

Return home.

Copyright ©2020 Inner Drive Technology. Purveyors of fine, hand-crafted computer software. Page printed 2020-12-05T09:06:00 UTC.